sensor_id;sensor_type;location;lat;lon;timestamp;pressure;altitude;pressure_sealevel;temperature;humidity
73455;BME280;61690;51.824;6.306;2022-11-20T00:00:49;101231.16;;;17.45;46.68
73455;BME280;61690;51.824;6.306;2022-11-20T00:03:15;101235.75;;;17.57;46.62
73455;BME280;61690;51.824;6.306;2022-11-20T00:05:40;101237.25;;;17.61;45.88
73455;BME280;61690;51.824;6.306;2022-11-20T00:08:05;101237.63;;;17.39;46.53
73455;BME280;61690;51.824;6.306;2022-11-20T00:10:31;101230.38;;;17.43;46.57
73455;BME280;61690;51.824;6.306;2022-11-20T00:12:58;101227.94;;;17.40;46.53
73455;BME280;61690;51.824;6.306;2022-11-20T00:15:23;101229.63;;;17.41;46.66
73455;BME280;61690;51.824;6.306;2022-11-20T00:17:49;101235.41;;;17.32;46.88
73455;BME280;61690;51.824;6.306;2022-11-20T00:20:14;101230.50;;;17.41;46.58
73455;BME280;61690;51.824;6.306;2022-11-20T00:22:40;101227.84;;;17.41;46.79
73455;BME280;61690;51.824;6.306;2022-11-20T00:25:05;101233.19;;;17.40;46.51
73455;BME280;61690;51.824;6.306;2022-11-20T00:27:30;101234.53;;;17.31;46.90
73455;BME280;61690;51.824;6.306;2022-11-20T00:29:56;101230.22;;;17.30;46.98
73455;BME280;61690;51.824;6.306;2022-11-20T00:32:21;101224.53;;;17.38;46.86
73455;BME280;61690;51.824;6.306;2022-11-20T00:34:46;101226.06;;;17.26;47.05
73455;BME280;61690;51.824;6.306;2022-11-20T00:37:12;101223.94;;;17.17;46.98
73455;BME280;61690;51.824;6.306;2022-11-20T00:39:37;101226.06;;;17.26;47.01
73455;BME280;61690;51.824;6.306;2022-11-20T00:42:02;101225.72;;;17.32;46.41
73455;BME280;61690;51.824;6.306;2022-11-20T00:44:28;101219.94;;;17.25;46.65
73455;BME280;61690;51.824;6.306;2022-11-20T00:46:53;101213.34;;;17.18;46.75
73455;BME280;61690;51.824;6.306;2022-11-20T00:49:18;101211.13;;;17.27;46.76
73455;BME280;61690;51.824;6.306;2022-11-20T00:51:43;101209.00;;;17.33;46.37
73455;BME280;61690;51.824;6.306;2022-11-20T00:54:09;101207.06;;;17.21;46.81
73455;BME280;61690;51.824;6.306;2022-11-20T00:56:34;101206.38;;;17.33;46.35
73455;BME280;61690;51.824;6.306;2022-11-20T00:59:00;101195.53;;;17.23;46.52
73455;BME280;61690;51.824;6.306;2022-11-20T01:01:29;101200.63;;;17.27;46.42
73455;BME280;61690;51.824;6.306;2022-11-20T01:03:56;101202.72;;;17.20;46.58
73455;BME280;61690;51.824;6.306;2022-11-20T01:06:30;101195.53;;;17.23;46.56
73455;BME280;61690;51.824;6.306;2022-11-20T01:08:57;101197.78;;;16.98;47.16
73455;BME280;61690;51.824;6.306;2022-11-20T01:11:28;101202.91;;;17.01;47.43
73455;BME280;61690;51.824;6.306;2022-11-20T01:13:55;101206.88;;;17.08;46.78
73455;BME280;61690;51.824;6.306;2022-11-20T01:16:31;101205.88;;;17.11;47.00
73455;BME280;61690;51.824;6.306;2022-11-20T01:18:58;101206.38;;;17.01;47.04
73455;BME280;61690;51.824;6.306;2022-11-20T01:21:33;101204.66;;;17.00;47.34
73455;BME280;61690;51.824;6.306;2022-11-20T01:23:59;101204.84;;;16.97;47.49
73455;BME280;61690;51.824;6.306;2022-11-20T01:26:28;101204.31;;;17.07;46.88
73455;BME280;61690;51.824;6.306;2022-11-20T01:28:54;101196.97;;;17.13;46.65
73455;BME280;61690;51.824;6.306;2022-11-20T01:31:25;101193.66;;;17.10;46.81
73455;BME280;61690;51.824;6.306;2022-11-20T01:33:54;101198.66;;;17.14;46.39
73455;BME280;61690;51.824;6.306;2022-11-20T01:36:22;101191.88;;;17.10;46.64
73455;BME280;61690;51.824;6.306;2022-11-20T01:38:51;101185.25;;;17.03;46.80
73455;BME280;61690;51.824;6.306;2022-11-20T01:41:16;101188.72;;;16.88;47.00
73455;BME280;61690;51.824;6.306;2022-11-20T01:44:01;101185.16;;;16.89;47.52
73455;BME280;61690;51.824;6.306;2022-11-20T01:46:27;101182.88;;;16.98;47.00
73455;BME280;61690;51.824;6.306;2022-11-20T01:48:59;101179.06;;;17.04;46.93
73455;BME280;61690;51.824;6.306;2022-11-20T01:51:45;101172.25;;;16.84;47.28
73455;BME280;61690;51.824;6.306;2022-11-20T01:54:20;101171.16;;;16.88;46.91
73455;BME280;61690;51.824;6.306;2022-11-20T01:56:48;101165.56;;;17.10;46.60
73455;BME280;61690;51.824;6.306;2022-11-20T01:59:17;101164.75;;;16.76;47.14
73455;BME280;61690;51.824;6.306;2022-11-20T02:01:44;101169.22;;;16.92;46.98
73455;BME280;61690;51.824;6.306;2022-11-20T02:04:09;101167.13;;;16.81;47.37
73455;BME280;61690;51.824;6.306;2022-11-20T02:06:40;101164.47;;;16.82;47.02
73455;BME280;61690;51.824;6.306;2022-11-20T02:09:07;101159.22;;;16.98;47.06
73455;BME280;61690;51.824;6.306;2022-11-20T02:11:32;101163.44;;;16.85;47.26
73455;BME280;61690;51.824;6.306;2022-11-20T02:13:58;101170.78;;;16.78;47.50
73455;BME280;61690;51.824;6.306;2022-11-20T02:18:54;101168.97;;;16.63;47.41
73455;BME280;61690;51.824;6.306;2022-11-20T02:21:49;101166.78;;;16.71;47.61
73455;BME280;61690;51.824;6.306;2022-11-20T02:24:18;101177.72;;;16.79;47.15
73455;BME280;61690;51.824;6.306;2022-11-20T02:29:14;101168.88;;;16.82;47.01
73455;BME280;61690;51.824;6.306;2022-11-20T02:31:42;101162.53;;;16.69;47.08
73455;BME280;61690;51.824;6.306;2022-11-20T02:34:09;101170.66;;;16.64;47.46
73455;BME280;61690;51.824;6.306;2022-11-20T02:36:35;101165.06;;;16.70;47.22
73455;BME280;61690;51.824;6.306;2022-11-20T02:39:03;101161.19;;;16.77;47.00
73455;BME280;61690;51.824;6.306;2022-11-20T02:41:33;101160.00;;;16.67;47.53
73455;BME280;61690;51.824;6.306;2022-11-20T02:43:58;101155.50;;;16.69;47.33
73455;BME280;61690;51.824;6.306;2022-11-20T02:46:24;101170.06;;;16.59;47.55
73455;BME280;61690;51.824;6.306;2022-11-20T02:48:49;101167.63;;;16.72;47.33
73455;BME280;61690;51.824;6.306;2022-11-20T02:51:14;101171.53;;;16.64;47.22
73455;BME280;61690;51.824;6.306;2022-11-20T02:53:40;101165.88;;;16.72;47.12
73455;BME280;61690;51.824;6.306;2022-11-20T02:56:05;101164.56;;;16.63;47.39
73455;BME280;61690;51.824;6.306;2022-11-20T02:58:31;101158.63;;;16.60;47.21
73455;BME280;61690;51.824;6.306;2022-11-20T03:00:56;101152.44;;;16.61;47.21
73455;BME280;61690;51.824;6.306;2022-11-20T03:03:22;101149.06;;;16.59;47.34
73455;BME280;61690;51.824;6.306;2022-11-20T03:05:47;101155.22;;;16.58;47.42
73455;BME280;61690;51.824;6.306;2022-11-20T03:08:12;101156.75;;;16.62;47.35
73455;BME280;61690;51.824;6.306;2022-11-20T03:10:37;101153.91;;;16.66;47.17
73455;BME280;61690;51.824;6.306;2022-11-20T03:13:03;101148.94;;;16.60;47.16
73455;BME280;61690;51.824;6.306;2022-11-20T03:15:28;101149.59;;;16.48;47.62
73455;BME280;61690;51.824;6.306;2022-11-20T03:17:54;101163.88;;;16.60;47.09
73455;BME280;61690;51.824;6.306;2022-11-20T03:20:20;101153.69;;;16.54;47.54
73455;BME280;61690;51.824;6.306;2022-11-20T03:22:46;101143.88;;;16.57;47.18
73455;BME280;61690;51.824;6.306;2022-11-20T03:25:11;101147.63;;;16.36;47.46
73455;BME280;61690;51.824;6.306;2022-11-20T03:27:37;101145.44;;;16.44;47.44
73455;BME280;61690;51.824;6.306;2022-11-20T03:30:02;101134.53;;;16.52;47.57
73455;BME280;61690;51.824;6.306;2022-11-20T03:32:28;101134.53;;;16.52;47.41
73455;BME280;61690;51.824;6.306;2022-11-20T03:34:53;101134.19;;;16.42;47.67
73455;BME280;61690;51.824;6.306;2022-11-20T03:37:18;101122.22;;;16.36;47.39
73455;BME280;61690;51.824;6.306;2022-11-20T03:39:44;101128.28;;;16.21;48.10
73455;BME280;61690;51.824;6.306;2022-11-20T03:42:09;101126.84;;;16.31;48.03
73455;BME280;61690;51.824;6.306;2022-11-20T03:44:54;101118.34;;;16.43;47.44
73455;BME280;61690;51.824;6.306;2022-11-20T03:47:19;101121.13;;;16.40;47.57
73455;BME280;61690;51.824;6.306;2022-11-20T03:49:44;101122.28;;;16.35;47.80
73455;BME280;61690;51.824;6.306;2022-11-20T03:52:09;101125.84;;;16.34;47.54
73455;BME280;61690;51.824;6.306;2022-11-20T03:54:35;101119.28;;;16.42;47.59
73455;BME280;61690;51.824;6.306;2022-11-20T03:57:00;101127.88;;;16.29;47.60
73455;BME280;61690;51.824;6.306;2022-11-20T03:59:25;101129.19;;;16.20;47.74
73455;BME280;61690;51.824;6.306;2022-11-20T04:01:50;101132.44;;;16.25;47.95
73455;BME280;61690;51.824;6.306;2022-11-20T04:04:16;101113.09;;;16.26;48.02
73455;BME280;61690;51.824;6.306;2022-11-20T04:06:41;101114.44;;;16.51;47.34
73455;BME280;61690;51.824;6.306;2022-11-20T04:09:06;101112.97;;;16.29;47.74
73455;BME280;61690;51.824;6.306;2022-11-20T04:11:33;101114.69;;;16.30;47.79
73455;BME280;61690;51.824;6.306;2022-11-20T04:14:01;101116.13;;;16.36;47.48
73455;BME280;61690;51.824;6.306;2022-11-20T04:16:31;101105.94;;;16.30;47.49
73455;BME280;61690;51.824;6.306;2022-11-20T04:18:58;101107.09;;;16.24;47.93
73455;BME280;61690;51.824;6.306;2022-11-20T04:21:24;101106.91;;;16.11;48.21
73455;BME280;61690;51.824;6.306;2022-11-20T04:23:50;101105.63;;;16.18;47.92
73455;BME280;61690;51.824;6.306;2022-11-20T04:26:16;101104.94;;;16.32;47.42
73455;BME280;61690;51.824;6.306;2022-11-20T04:28:41;101115.16;;;16.21;47.85
73455;BME280;61690;51.824;6.306;2022-11-20T04:31:12;101114.22;;;16.04;48.33
73455;BME280;61690;51.824;6.306;2022-11-20T04:33:39;101115.63;;;16.12;47.97
73455;BME280;61690;51.824;6.306;2022-11-20T04:36:13;101116.94;;;16.03;48.13
73455;BME280;61690;51.824;6.306;2022-11-20T04:38:39;101112.06;;;16.13;47.80
73455;BME280;61690;51.824;6.306;2022-11-20T04:41:07;101106.31;;;16.22;47.60
73455;BME280;61690;51.824;6.306;2022-11-20T04:43:34;101100.88;;;16.09;48.07
73455;BME280;61690;51.824;6.306;2022-11-20T04:46:00;101102.03;;;16.21;47.64
73455;BME280;61690;51.824;6.306;2022-11-20T04:48:27;101101.63;;;16.29;47.27
73455;BME280;61690;51.824;6.306;2022-11-20T04:50:52;101100.78;;;16.11;47.82
73455;BME280;61690;51.824;6.306;2022-11-20T04:53:18;101100.56;;;16.15;47.60
73455;BME280;61690;51.824;6.306;2022-11-20T04:55:44;101102.13;;;16.02;48.04
73455;BME280;61690;51.824;6.306;2022-11-20T04:58:10;101103.63;;;16.23;47.55
73455;BME280;61690;51.824;6.306;2022-11-20T05:00:36;101095.84;;;16.04;48.00
73455;BME280;61690;51.824;6.306;2022-11-20T05:03:01;101102.19;;;16.00;48.16
73455;BME280;61690;51.824;6.306;2022-11-20T05:05:26;101100.34;;;16.02;47.99
73455;BME280;61690;51.824;6.306;2022-11-20T05:07:52;101100.34;;;16.02;48.00
73455;BME280;61690;51.824;6.306;2022-11-20T05:10:17;101103.91;;;16.01;47.88
73455;BME280;61690;51.824;6.306;2022-11-20T05:12:42;101100.66;;;15.96;47.79
73455;BME280;61690;51.824;6.306;2022-11-20T05:15:08;101098.88;;;15.97;47.90
73455;BME280;61690;51.824;6.306;2022-11-20T05:17:33;101110.69;;;16.05;47.66
73455;BME280;61690;51.824;6.306;2022-11-20T05:19:59;101100.81;;;15.93;47.92
73455;BME280;61690;51.824;6.306;2022-11-20T05:22:24;101098.44;;;15.88;48.12
73455;BME280;61690;51.824;6.306;2022-11-20T05:24:49;101103.28;;;15.96;48.13
73455;BME280;61690;51.824;6.306;2022-11-20T05:27:15;101095.41;;;15.96;47.84
73455;BME280;61690;51.824;6.306;2022-11-20T05:29:40;101089.53;;;16.08;47.74
73455;BME280;61690;51.824;6.306;2022-11-20T05:32:05;101091.25;;;15.92;47.96
73455;BME280;61690;51.824;6.306;2022-11-20T05:34:34;101087.09;;;15.88;47.97
73455;BME280;61690;51.824;6.306;2022-11-20T05:36:59;101089.78;;;15.86;48.15
73455;BME280;61690;51.824;6.306;2022-11-20T05:39:24;101089.34;;;15.78;48.42
73455;BME280;61690;51.824;6.306;2022-11-20T05:41:50;101084.63;;;15.85;48.07
73455;BME280;61690;51.824;6.306;2022-11-20T05:44:35;101083.47;;;15.73;48.27
73455;BME280;61690;51.824;6.306;2022-11-20T05:47:00;101074.13;;;15.85;48.39
73455;BME280;61690;51.824;6.306;2022-11-20T05:49:25;101069.25;;;15.95;47.74
73455;BME280;61690;51.824;6.306;2022-11-20T05:51:51;101074.50;;;15.77;48.28
73455;BME280;61690;51.824;6.306;2022-11-20T05:54:16;101074.81;;;15.88;48.04
73455;BME280;61690;51.824;6.306;2022-11-20T05:56:42;101075.50;;;15.92;47.80
73455;BME280;61690;51.824;6.306;2022-11-20T05:59:07;101087.16;;;15.86;48.29
73455;BME280;61690;51.824;6.306;2022-11-20T06:01:32;101087.03;;;16.23;46.98
73455;BME280;61690;51.824;6.306;2022-11-20T06:03:58;101090.75;;;15.66;48.78
73455;BME280;61690;51.824;6.306;2022-11-20T06:06:23;101088.66;;;15.38;49.53
73455;BME280;61690;51.824;6.306;2022-11-20T06:08:49;101088.09;;;15.32;49.81
73455;BME280;61690;51.824;6.306;2022-11-20T06:11:15;101086.75;;;15.42;49.62
73455;BME280;61690;51.824;6.306;2022-11-20T06:13:41;101086.28;;;15.68;48.82
73455;BME280;61690;51.824;6.306;2022-11-20T06:16:06;101094.47;;;15.80;49.00
73455;BME280;61690;51.824;6.306;2022-11-20T06:18:32;101088.25;;;15.82;48.87
73455;BME280;61690;51.824;6.306;2022-11-20T06:21:06;101094.66;;;15.94;48.73
73455;BME280;61690;51.824;6.306;2022-11-20T06:23:33;101091.63;;;16.02;48.68
73455;BME280;61690;51.824;6.306;2022-11-20T06:26:03;101099.31;;;16.05;48.67
73455;BME280;61690;51.824;6.306;2022-11-20T06:28:29;101095.06;;;16.20;48.17
73455;BME280;61690;51.824;6.306;2022-11-20T06:30:55;101084.75;;;16.17;48.21
73455;BME280;61690;51.824;6.306;2022-11-20T06:33:20;101093.69;;;16.30;47.94
73455;BME280;61690;51.824;6.306;2022-11-20T06:35:45;101088.44;;;16.46;47.87
73455;BME280;61690;51.824;6.306;2022-11-20T06:38:11;101093.69;;;16.46;47.55
73455;BME280;61690;51.824;6.306;2022-11-20T06:40:39;101096.66;;;16.40;48.05
73455;BME280;61690;51.824;6.306;2022-11-20T06:43:05;101103.19;;;16.49;48.06
73455;BME280;61690;51.824;6.306;2022-11-20T06:45:30;101103.38;;;16.61;47.52
73455;BME280;61690;51.824;6.306;2022-11-20T06:47:57;101106.97;;;16.76;47.41
73455;BME280;61690;51.824;6.306;2022-11-20T06:50:22;101119.16;;;16.77;47.17
73455;BME280;61690;51.824;6.306;2022-11-20T06:52:47;101109.69;;;16.75;47.41
73455;BME280;61690;51.824;6.306;2022-11-20T06:55:13;101112.22;;;16.76;47.36
73455;BME280;61690;51.824;6.306;2022-11-20T06:57:38;101107.09;;;16.91;47.28
73455;BME280;61690;51.824;6.306;2022-11-20T07:00:04;101108.09;;;17.04;46.79
73455;BME280;61690;51.824;6.306;2022-11-20T07:02:29;101115.38;;;16.99;47.20
73455;BME280;61690;51.824;6.306;2022-11-20T07:04:54;101118.47;;;17.07;47.00
73455;BME280;61690;51.824;6.306;2022-11-20T07:07:20;101130.81;;;17.21;46.46
73455;BME280;61690;51.824;6.306;2022-11-20T07:09:45;101125.97;;;17.29;46.23
73455;BME280;61690;51.824;6.306;2022-11-20T07:12:10;101129.56;;;17.28;46.16
73455;BME280;61690;51.824;6.306;2022-11-20T07:14:35;101124.28;;;17.28;46.55
73455;BME280;61690;51.824;6.306;2022-11-20T07:17:01;101112.03;;;17.43;45.98
73455;BME280;61690;51.824;6.306;2022-11-20T07:19:26;101110.41;;;17.56;45.63
73455;BME280;61690;51.824;6.306;2022-11-20T07:21:51;101113.50;;;17.33;46.29
73455;BME280;61690;51.824;6.306;2022-11-20T07:24:16;101118.34;;;17.40;45.82
73455;BME280;61690;51.824;6.306;2022-11-20T07:26:42;101117.31;;;17.27;46.44
73455;BME280;61690;51.824;6.306;2022-11-20T07:29:07;101111.06;;;16.98;46.84
73455;BME280;61690;51.824;6.306;2022-11-20T07:31:32;101108.69;;;17.09;47.08
73455;BME280;61690;51.824;6.306;2022-11-20T07:33:58;101105.88;;;17.12;46.75
73455;BME280;61690;51.824;6.306;2022-11-20T07:36:23;101101.56;;;17.27;46.65
73455;BME280;61690;51.824;6.306;2022-11-20T07:38:48;101106.31;;;17.20;46.57
73455;BME280;61690;51.824;6.306;2022-11-20T07:41:14;101101.88;;;17.37;46.71
73455;BME280;61690;51.824;6.306;2022-11-20T07:43:40;101091.78;;;17.29;46.83
73455;BME280;61690;51.824;6.306;2022-11-20T07:46:05;101093.81;;;17.40;46.58
73455;BME280;61690;51.824;6.306;2022-11-20T07:48:30;101097.13;;;17.43;46.50
73455;BME280;61690;51.824;6.306;2022-11-20T07:50:56;101096.13;;;17.30;46.57
73455;BME280;61690;51.824;6.306;2022-11-20T07:53:22;101092.13;;;17.39;46.39
73455;BME280;61690;51.824;6.306;2022-11-20T07:55:47;101091.50;;;17.50;46.61
73455;BME280;61690;51.824;6.306;2022-11-20T07:58:13;101080.69;;;17.40;46.24
73455;BME280;61690;51.824;6.306;2022-11-20T08:00:41;101087.53;;;17.42;46.93
73455;BME280;61690;51.824;6.306;2022-11-20T08:03:07;101089.81;;;17.49;46.42
73455;BME280;61690;51.824;6.306;2022-11-20T08:05:33;101092.44;;;17.49;46.72
73455;BME280;61690;51.824;6.306;2022-11-20T08:07:58;101084.06;;;17.42;46.99
73455;BME280;61690;51.824;6.306;2022-11-20T08:10:23;101079.88;;;17.54;46.50
73455;BME280;61690;51.824;6.306;2022-11-20T08:12:51;101079.91;;;17.84;45.90
73455;BME280;61690;51.824;6.306;2022-11-20T08:15:35;101076.56;;;17.80;45.65
73455;BME280;61690;51.824;6.306;2022-11-20T08:18:03;101078.53;;;17.77;45.99
73455;BME280;61690;51.824;6.306;2022-11-20T08:20:29;101089.47;;;17.85;45.70
73455;BME280;61690;51.824;6.306;2022-11-20T08:23:01;101084.63;;;17.93;45.78
73455;BME280;61690;51.824;6.306;2022-11-20T08:25:28;101094.56;;;17.88;45.66
73455;BME280;61690;51.824;6.306;2022-11-20T08:27:53;101089.69;;;17.96;45.75
73455;BME280;61690;51.824;6.306;2022-11-20T08:30:19;101091.00;;;18.03;45.54
73455;BME280;61690;51.824;6.306;2022-11-20T08:32:44;101091.69;;;18.07;45.50
73455;BME280;61690;51.824;6.306;2022-11-20T08:35:09;101091.22;;;18.15;45.47
73455;BME280;61690;51.824;6.306;2022-11-20T08:37:35;101091.22;;;18.15;45.32
73455;BME280;61690;51.824;6.306;2022-11-20T08:40:00;101083.63;;;18.10;45.03
73455;BME280;61690;51.824;6.306;2022-11-20T08:42:25;101092.13;;;17.99;45.19
73455;BME280;61690;51.824;6.306;2022-11-20T08:44:50;101083.94;;;17.90;45.77
73455;BME280;61690;51.824;6.306;2022-11-20T08:47:16;101079.66;;;18.03;45.75
73455;BME280;61690;51.824;6.306;2022-11-20T08:49:41;101074.25;;;17.90;45.56
73455;BME280;61690;51.824;6.306;2022-11-20T08:52:06;101071.09;;;18.14;44.96
73455;BME280;61690;51.824;6.306;2022-11-20T08:54:32;101078.16;;;18.13;45.54
73455;BME280;61690;51.824;6.306;2022-11-20T08:56:57;101074.84;;;18.10;45.30
73455;BME280;61690;51.824;6.306;2022-11-20T08:59:23;101079.38;;;18.22;45.17
73455;BME280;61690;51.824;6.306;2022-11-20T09:01:48;101074.47;;;18.16;45.05
73455;BME280;61690;51.824;6.306;2022-11-20T09:04:13;101068.91;;;18.06;45.15
73455;BME280;61690;51.824;6.306;2022-11-20T09:06:39;101075.88;;;18.21;45.12
73455;BME280;61690;51.824;6.306;2022-11-20T09:09:05;101067.16;;;18.21;45.13
73455;BME280;61690;51.824;6.306;2022-11-20T09:11:31;101063.47;;;18.09;45.26
73455;BME280;61690;51.824;6.306;2022-11-20T09:13:56;101067.69;;;18.40;44.91
73455;BME280;61690;51.824;6.306;2022-11-20T09:16:21;101062.81;;;18.34;44.64
73455;BME280;61690;51.824;6.306;2022-11-20T09:18:49;101061.16;;;18.33;44.86
73455;BME280;61690;51.824;6.306;2022-11-20T09:21:14;101057.06;;;18.42;44.66
73455;BME280;61690;51.824;6.306;2022-11-20T09:23:40;101055.47;;;18.25;44.93
73455;BME280;61690;51.824;6.306;2022-11-20T09:26:08;101064.69;;;18.32;45.03
73455;BME280;61690;51.824;6.306;2022-11-20T09:28:34;101052.28;;;18.49;44.18
73455;BME280;61690;51.824;6.306;2022-11-20T09:30:59;101058.38;;;18.35;44.91
73455;BME280;61690;51.824;6.306;2022-11-20T09:33:25;101049.44;;;18.66;44.68
73455;BME280;61690;51.824;6.306;2022-11-20T09:35:50;101053.03;;;18.51;44.92
73455;BME280;61690;51.824;6.306;2022-11-20T09:38:15;101044.69;;;18.30;45.46
73455;BME280;61690;51.824;6.306;2022-11-20T09:40:46;101043.25;;;18.38;45.55
73455;BME280;61690;51.824;6.306;2022-11-20T09:46:18;101037.75;;;18.70;44.23
73455;BME280;61690;51.824;6.306;2022-11-20T09:49:23;101043.22;;;18.67;44.82
73455;BME280;61690;51.824;6.306;2022-11-20T09:52:00;101032.41;;;18.72;44.54
73455;BME280;61690;51.824;6.306;2022-11-20T09:54:30;101037.53;;;18.73;44.51
73455;BME280;61690;51.824;6.306;2022-11-20T09:57:00;101042.63;;;18.76;44.22
73455;BME280;61690;51.824;6.306;2022-11-20T09:59:38;101033.41;;;18.69;44.71
73455;BME280;61690;51.824;6.306;2022-11-20T10:02:28;101036.81;;;18.86;44.39
73455;BME280;61690;51.824;6.306;2022-11-20T10:07:30;101028.91;;;18.86;43.99
73455;BME280;61690;51.824;6.306;2022-11-20T10:09:57;101027.56;;;18.93;43.88
73455;BME280;61690;51.824;6.306;2022-11-20T10:12:50;101021.47;;;19.05;43.85
73455;BME280;61690;51.824;6.306;2022-11-20T10:23:10;101004.19;;;18.59;44.86
73455;BME280;61690;51.824;6.306;2022-11-20T10:31:07;100994.63;;;18.86;44.52
73455;BME280;61690;51.824;6.306;2022-11-20T10:33:39;100979.75;;;19.25;43.67
73455;BME280;61690;51.824;6.306;2022-11-20T10:36:19;100976.19;;;19.26;43.72
73455;BME280;61690;51.824;6.306;2022-11-20T10:38:54;100979.84;;;19.10;44.12
73455;BME280;61690;51.824;6.306;2022-11-20T10:41:26;100983.78;;;19.30;43.44
73455;BME280;61690;51.824;6.306;2022-11-20T10:44:17;100973.53;;;19.38;43.05
73455;BME280;61690;51.824;6.306;2022-11-20T10:47:13;100961.97;;;19.41;43.12
73455;BME280;61690;51.824;6.306;2022-11-20T10:49:41;100975.59;;;19.08;44.01
73455;BME280;61690;51.824;6.306;2022-11-20T10:57:47;100974.84;;;18.93;44.73
73455;BME280;61690;51.824;6.306;2022-11-20T11:00:17;100977.13;;;19.25;43.70
73455;BME280;61690;51.824;6.306;2022-11-20T11:02:51;100978.94;;;19.37;43.71
73455;BME280;61690;51.824;6.306;2022-11-20T11:08:17;100956.78;;;19.39;43.28
73455;BME280;61690;51.824;6.306;2022-11-20T11:10:53;100953.50;;;19.36;43.23
73455;BME280;61690;51.824;6.306;2022-11-20T11:13:28;100951.78;;;19.09;44.47
73455;BME280;61690;51.824;6.306;2022-11-20T11:15:55;100948.31;;;18.54;46.16
73455;BME280;61690;51.824;6.306;2022-11-20T11:20:50;100941.50;;;18.37;46.86
73455;BME280;61690;51.824;6.306;2022-11-20T11:23:43;100945.38;;;18.17;48.19
73455;BME280;61690;51.824;6.306;2022-11-20T11:26:22;100943.38;;;18.35;47.70
73455;BME280;61690;51.824;6.306;2022-11-20T11:29:00;100929.25;;;18.36;47.62
73455;BME280;61690;51.824;6.306;2022-11-20T11:31:28;100933.63;;;18.50;47.82
73455;BME280;61690;51.824;6.306;2022-11-20T11:34:24;100919.28;;;18.69;47.10
73455;BME280;61690;51.824;6.306;2022-11-20T11:36:59;100913.66;;;18.88;46.40
73455;BME280;61690;51.824;6.306;2022-11-20T11:39:27;100914.22;;;18.93;46.03
73455;BME280;61690;51.824;6.306;2022-11-20T11:41:54;100900.81;;;18.96;46.12
73455;BME280;61690;51.824;6.306;2022-11-20T11:44:43;100899.56;;;19.02;45.76
73455;BME280;61690;51.824;6.306;2022-11-20T11:47:26;100887.63;;;18.96;46.05
73455;BME280;61690;51.824;6.306;2022-11-20T11:50:07;100878.19;;;19.06;45.93
73455;BME280;61690;51.824;6.306;2022-11-20T11:55:14;100867.53;;;19.33;45.05
73455;BME280;61690;51.824;6.306;2022-11-20T11:57:47;100862.91;;;19.37;45.40
73455;BME280;61690;51.824;6.306;2022-11-20T12:00:16;100858.75;;;19.33;45.59
73455;BME280;61690;51.824;6.306;2022-11-20T12:05:18;100853.50;;;19.20;45.60
73455;BME280;61690;51.824;6.306;2022-11-20T12:07:54;100854.13;;;19.24;45.43
73455;BME280;61690;51.824;6.306;2022-11-20T12:10:23;100856.34;;;19.30;45.78
73455;BME280;61690;51.824;6.306;2022-11-20T12:13:01;100839.78;;;19.28;45.57
73455;BME280;61690;51.824;6.306;2022-11-20T12:15:32;100834.38;;;19.42;44.73
73455;BME280;61690;51.824;6.306;2022-11-20T12:17:58;100829.75;;;19.07;45.55
73455;BME280;61690;51.824;6.306;2022-11-20T12:20:27;100837.59;;;19.22;45.17
73455;BME280;61690;51.824;6.306;2022-11-20T12:25:54;100825.13;;;19.11;45.68
73455;BME280;61690;51.824;6.306;2022-11-20T12:29:40;100819.09;;;18.96;46.26
73455;BME280;61690;51.824;6.306;2022-11-20T12:34:43;100816.00;;;18.76;46.42
73455;BME280;61690;51.824;6.306;2022-11-20T12:37:38;100819.19;;;18.94;45.82
73455;BME280;61690;51.824;6.306;2022-11-20T12:43:17;100792.31;;;19.02;45.63
73455;BME280;61690;51.824;6.306;2022-11-20T12:48:56;100785.88;;;18.80;45.86
73455;BME280;61690;51.824;6.306;2022-11-20T12:51:40;100792.97;;;19.18;44.91
73455;BME280;61690;51.824;6.306;2022-11-20T12:54:29;100792.09;;;18.79;45.99
73455;BME280;61690;51.824;6.306;2022-11-20T12:58:06;100785.66;;;18.96;45.54
73455;BME280;61690;51.824;6.306;2022-11-20T13:00:19;100767.00;;;18.87;46.07
73455;BME280;61690;51.824;6.306;2022-11-20T13:05:40;100758.69;;;19.06;45.32
73455;BME280;61690;51.824;6.306;2022-11-20T13:08:32;100758.47;;;19.22;45.27
73455;BME280;61690;51.824;6.306;2022-11-20T13:16:36;100738.56;;;19.54;44.06
73455;BME280;61690;51.824;6.306;2022-11-20T13:19:04;100734.81;;;19.70;43.77
73455;BME280;61690;51.824;6.306;2022-11-20T13:21:42;100730.28;;;19.72;43.55
73455;BME280;61690;51.824;6.306;2022-11-20T13:26:44;100731.44;;;19.68;43.79
73455;BME280;61690;51.824;6.306;2022-11-20T13:29:17;100729.78;;;19.54;44.01
73455;BME280;61690;51.824;6.306;2022-11-20T13:31:45;100729.66;;;19.55;44.18
73455;BME280;61690;51.824;6.306;2022-11-20T13:34:25;100738.13;;;19.48;44.19
73455;BME280;61690;51.824;6.306;2022-11-20T13:36:53;100730.13;;;19.49;43.71
73455;BME280;61690;51.824;6.306;2022-11-20T13:39:48;100716.19;;;19.47;44.10
73455;BME280;61690;51.824;6.306;2022-11-20T13:44:48;100700.59;;;19.44;44.21
73455;BME280;61690;51.824;6.306;2022-11-20T13:47:27;100691.72;;;19.45;43.97
73455;BME280;61690;51.824;6.306;2022-11-20T13:49:55;100687.41;;;19.44;43.87
73455;BME280;61690;51.824;6.306;2022-11-20T13:55:06;100655.53;;;19.47;43.91
73455;BME280;61690;51.824;6.306;2022-11-20T13:57:41;100646.66;;;19.48;43.75
73455;BME280;61690;51.824;6.306;2022-11-20T14:00:17;100647.88;;;19.55;43.71
73455;BME280;61690;51.824;6.306;2022-11-20T14:02:52;100645.69;;;19.49;44.13
73455;BME280;61690;51.824;6.306;2022-11-20T14:05:23;100668.78;;;19.58;43.89
73455;BME280;61690;51.824;6.306;2022-11-20T14:07:50;100663.78;;;19.67;43.53